Tiempo atmosférico en la estación meteorológica de Caldes De Montbui, Barcelona (168 m.)



Fecha
DESCASC
Temp. máxima en grados centígrados (hora)
DESCASC
Temp. mínima en grados centígrados (hora)
DESCASC
Temp. media en grados centígrados
DESCASC
Racha de viento máxima en m/sg (hora)
DESCASC
Velocidad máxima media en intervalos de 10 minutos(hora)
DESCASC
Precipitaciones diarias en mm
DESCASC
Precipitaciones de 00:00 a 06:00 en mm
DESCASC
Precipitaciones de 06:00 a 12:00 en mm
DESCASC
Precipitaciones de 12:00 a 18:00 en mm
DESCASC
Precipitaciones de 18:00 a 24:00 en mm
DESCASC
18-10-2018 20.4 (16:30) 13.2 (06:10) 16.8 9.17 (23:59) 4.44 (23:59) 0.4 0 0 0.4 0
17-10-2018 23.3 (14:20) 12.9 (03:10) 18.1 5.28 (16:40) 2.5 (11:30) 0.6 0.6 0 0 0
16-10-2018 21.9 (14:10) 11.5 (05:20) 16.7 5.28 (13:30) 3.61 (13:30) 0.4 0 0.2 0.2 0
15-10-2018 22.3 (14:30) 13.6 (23:59) 17.9 15 (01:00) 6.67 (00:50) 18.6 17.4 0.6 0.6 0
14-10-2018 22.7 (13:00) 16.6 (00:00) 19.7 12.78 (23:59) 5.83 (16:50) 20.6 0 0.4 0.4 19.8
13-10-2018 22.5 (15:00) 17.9 (00:00) 20.2 4.72 (15:20) 2.78 (13:50) 5.6 0 5.6 0 0
12-10-2018 25.6 (16:10) 14.7 (00:00) 20.2 6.39 (17:00) 4.17 (17:00) 0 0 0 0 0
11-10-2018 26.5 (16:40) 13.3 (07:50) 19.9 11.67 (16:10) 4.72 (17:30) 0 0 0 0 0
10-10-2018 23.3 (15:40) 15.7 (00:00) 19.5 6.39 (00:10) 3.06 (12:50) 2.6 0.8 1.8 0 0
09-10-2018 23.3 (15:30) 11.8 (00:00) 17.5 8.89 (21:50) 4.44 (13:00) 14.8 0 0 0 14.8
08-10-2018 19.4 (16:20) 10.7 (08:20) 15 3.61 (12:20) 2.78 (12:20) 0 0 0 0 0
07-10-2018 22.3 (14:30) 13.6 (21:30) 17.9 9.72 (14:40) 5.56 (17:00) 1.4 0 0 0 1.4
06-10-2018 25.7 (17:10) 11.8 (07:30) 18.8 8.89 (17:30) 5 (15:00) 0 0 0 0 0
05-10-2018 26.1 (14:40) 11.2 (08:10) 18.7 6.67 (14:20) 4.44 (14:50) 0 0 0 0 0
04-10-2018 27 (15:40) 11.7 (00:00) 19.3 8.89 (16:40) 5.83 (16:40) 0 0 0 0 0
03-10-2018 27.2 (15:20) 9.7 (00:00) 18.5 8.89 (15:50) 5.28 (17:10) 0 0 0 0 0
02-10-2018 26.4 (16:10) 7.3 (00:00) 16.8 8.61 (12:30) 4.72 (12:50) 0 0 0 0 0
01-10-2018 26 (16:10) 14.3 (00:00) 20.2 10 (17:30) 6.39 (17:40) 0 0 0 0 0
30-09-2018 28.7 (16:00) 15.3 (00:00) 22 9.44 (15:00) 5.83 (17:40) 0 0 0 0 0
29-09-2018 28.8 (14:00) 14.5 (00:00) 21.6 8.06 (16:20) 4.72 (14:50) 0 0 0 0 0
28-09-2018 31 (16:50) 12.3 (00:00) 21.7 6.67 (14:00) 4.17 (15:00) 0 0 0 0 0
27-09-2018 25.7 (15:10) 11.5 (00:00) 18.6 7.22 (15:20) 4.72 (16:10) 0 0 0 0 0
26-09-2018 24.6 (13:50) 14.6 (00:00) 19.6 10.56 (15:50) 5.28 (15:50) 0 0 0 0 0
25-09-2018 26 (16:00) 15.6 (00:00) 20.8 8.33 (18:10) 3.89 (18:00) 0 0 0 0 0
24-09-2018 27.8 (14:30) 18.7 (00:00) 23.3 7.78 (15:00) 5.28 (15:10) 4 0 0 0 4
23-09-2018 30.9 (15:40) 18.3 (06:50) 24.6 6.94 (16:00) 4.72 (16:40) 0 0 0 0 0
22-09-2018 31.6 (15:50) 18.8 (06:40) 25.2 7.78 (16:20) 4.44 (16:20) 0 0 0 0 0
21-09-2018 31.9 (13:50) 16 (07:20) 23.9 7.5 (14:30) 4.72 (15:40) 0 0 0 0 0
20-09-2018 31.4 (14:20) 16.7 (07:00) 24.1 7.5 (15:40) 4.72 (18:10) 0 0 0 0 0

Gráficas

Temp. máximas Temp. mínimas Temp. medias Precipitaciones Rachas de viento máximas Velocidades máximas media en intervalos de 10 minutos

Datos horarios

Fecha y hora oficial Temperatura (ºC) Velocidad del viento (km/h) Dirección del viento Racha (km/h) Dirección de racha Precipitación (mm) Presión (hPa) Tendencia (hPa) Humedad (%)
2018-10-19 23:00:00 18.2 6 Noroeste 14 Norte 0 -- -- 85
2018-10-19 22:00:00 18.3 3 Noroeste 11 Noroeste 0 -- -- 85
2018-10-19 21:00:00 18 6 Noroeste 13 Noroeste 0.2 -- -- 89
2018-10-19 20:00:00 18.7 3 Norte 10 Sudoeste 0.4 -- -- 86
2018-10-19 19:00:00 20.3 4 Este 22 Este 0 -- -- 72
2018-10-19 18:00:00 21.2 11 Este 27 Nordeste 0 -- -- 67
2018-10-19 17:00:00 22 12 Este 24 Nordeste 0 -- -- 65
2018-10-19 16:00:00 22.2 10 Este 26 Este 0 -- -- 64
2018-10-19 15:00:00 22.5 11 Este 34 Nordeste 0 -- -- 63
2018-10-19 14:00:00 23.2 14 Nordeste 40 Este 0 -- -- 61
2018-10-19 13:00:00 23.8 13 Nordeste 35 Nordeste 0 -- -- 61
2018-10-19 12:00:00 23.2 10 Nordeste 30 Norte 0 -- -- 62
2018-10-19 11:00:00 22.6 9 Nordeste 24 Norte 0 -- -- 64
2018-10-19 10:00:00 20.5 12 Norte 26 Norte 0 -- -- 71
2018-10-19 09:00:00 19.3 9 Norte 18 Norte 0 -- -- 73
2018-10-19 08:00:00 17.8 4 Norte 10 Este 0 -- -- 80
2018-10-19 07:00:00 19 5 Norte 14 Nordeste 0 -- -- 73
2018-10-19 06:00:00 18.9 4 Este 11 Norte 0.2 -- -- 74
2018-10-19 05:00:00 19.7 4 Este 15 Nordeste 0 -- -- 68
2018-10-19 04:00:00 19.5 5 Nordeste 12 Nordeste 0 -- -- 67
2018-10-19 03:00:00 18.8 4 Norte 15 Norte 0 -- -- 73
2018-10-19 02:00:00 19.3 5 Norte 21 Noroeste 0 -- -- 72
2018-10-19 01:00:00 20.2 7 Norte 33 Nordeste 0 -- -- 68
2018-10-19 00:00:00 20.1 16 Norte 33 Norte 0 -- -- 68
2018-10-18 23:00:00 16 4 Noroeste 9 Noroeste 0 -- -- 91
2018-10-18 22:00:00 16.6 5 Noroeste 9 Noroeste 0 -- -- 88
2018-10-18 21:00:00 16.9 5 Noroeste 10 Nordeste 0 -- -- 88
2018-10-18 20:00:00 18.1 4 Noroeste 10 Nordeste 0 -- -- 85
2018-10-18 19:00:00 19.1 4 Norte 11 Norte 0 -- -- 80
2018-10-18 18:00:00 19.8 3 Nordeste 16 Nordeste 0 -- -- 78
2018-10-18 17:00:00 20.1 5 Nordeste 17 Nordeste 0 -- -- 79
2018-10-18 16:00:00 20.2 4 Norte 9 Nordeste 0 -- -- 84
2018-10-18 15:00:00 19.7 3 Este 12 Oeste 0 -- -- 87
2018-10-18 14:00:00 19.3 7 Noroeste 14 Oeste 0.2 -- -- 88
2018-10-18 13:00:00 19.4 2 Este 9 Norte 0.2 -- -- 87
2018-10-18 12:00:00 19.9 4 Nordeste 15 Nordeste 0 -- -- 82
2018-10-18 11:00:00 19.8 2 Este 8 Oeste 0 -- -- 78
2018-10-18 10:00:00 17 2 Noroeste 4 Noroeste 0 -- -- 92
2018-10-18 09:00:00 13.9 3 Oeste 8 Oeste 0 -- -- 98
2018-10-18 08:00:00 13.6 3 Noroeste 8 Noroeste 0 -- -- 97
2018-10-18 07:00:00 13.9 7 Noroeste 9 Oeste 0 -- -- 98
2018-10-18 06:00:00 13.5 0 Calma 6 Oeste 0 -- -- 97
2018-10-18 05:00:00 14.4 3 Nordeste 15 Noroeste 0 -- -- 94
2018-10-18 04:00:00 14.8 9 Noroeste 15 Noroeste 0 -- -- 93
2018-10-18 03:00:00 14.3 9 Noroeste 11 Noroeste 0 -- -- 96
2018-10-18 02:00:00 14.9 7 Oeste 13 Oeste 0 -- -- 96
2018-10-18 01:00:00 15.2 4 Oeste 8 Noroeste 0 -- -- 96
2018-10-18 00:00:00 15.7 5 Noroeste 9 Oeste 0 -- -- 94
2018-10-17 23:00:00 16.8 5 Oeste 6 Oeste 0 -- -- 95
2018-10-17 22:00:00 17 2 Sudoeste 10 Noroeste 0 -- -- 95
2018-10-17 21:00:00 17 3 Noroeste 6 Sudoeste 0 -- -- 94
2018-10-17 20:00:00 17.3 3 Noroeste 9 Oeste 0 -- -- 94
2018-10-17 19:00:00 18.3 3 Norte 10 Este 0 -- -- 86
2018-10-17 18:00:00 19 5 Norte 19 Este 0 -- -- 80
2018-10-17 17:00:00 21.3 5 Este 19 Nordeste 0 -- -- 73
2018-10-17 16:00:00 22.9 7 Este 15 Este 0 -- -- 64
2018-10-17 15:00:00 22.4 8 Este 16 Sudeste 0 -- -- 66
2018-10-17 14:00:00 22.9 8 Este 14 Sudeste 0 -- -- 60
2018-10-17 13:00:00 21.9 6 Sudeste 12 Sudeste 0 -- -- 67
2018-10-17 12:00:00 20 5 Sudeste 17 Este 0 -- -- 77
2018-10-17 11:00:00 18.7 8 Este 11 Sudeste 0 -- -- 88
2018-10-17 10:00:00 15 4 Oeste 8 Oeste 0 -- -- 99
2018-10-17 09:00:00 14 2 Noroeste 9 Noroeste 0 -- -- 99
2018-10-17 08:00:00 13.3 0 Calma 6 Norte 0 -- -- 99
2018-10-17 07:00:00 13.3 0 Calma 5 Sudoeste 0 -- -- 98
2018-10-17 06:00:00 14.4 0 Calma 7 Oeste 0.2 -- -- 97
2018-10-17 05:00:00 14.3 0 Calma 9 Sudoeste 0.4 -- -- 97
2018-10-17 04:00:00 13.3 0 Calma 8 Noroeste 0 -- -- 97
2018-10-17 03:00:00 13 2 Noroeste 5 Sudoeste 0 -- -- 96
2018-10-17 02:00:00 13.9 0 Calma 5 Noroeste 0 -- -- 94
2018-10-17 01:00:00 15 3 Noroeste 10 Oeste 0 -- -- 91
2018-10-17 00:00:00 15 4 Oeste 7 Oeste 0 -- -- 92
2018-10-16 23:00:00 14.6 2 Este 12 Noroeste 0 -- -- 91
2018-10-16 22:00:00 15 9 Noroeste 15 Noroeste 0 -- -- 90
2018-10-16 21:00:00 15.6 7 Noroeste 12 Noroeste 0 -- -- 90
2018-10-16 20:00:00 17.4 5 Noroeste 9 Noroeste 0 -- -- 82
2018-10-16 19:00:00 19.4 3 Este 14 Este 0 -- -- 70
2018-10-16 18:00:00 21 3 Sudeste 10 Sudeste 0 -- -- 70
2018-10-16 17:00:00 19.6 9 Sudeste 13 Sudeste 0 -- -- 80
2018-10-16 16:00:00 20 2 Sudeste 5 Este 0 -- -- 77
2018-10-16 15:00:00 20.6 4 Sur 15 Sudeste 0.2 -- -- 69
2018-10-16 14:00:00 21.5 9 Sudeste 19 Sudeste 0 -- -- 65
2018-10-16 13:00:00 21.4 4 Nordeste 15 Nordeste 0 -- -- 64
2018-10-16 12:00:00 20.3 6 Este 13 Este 0 -- -- 67
2018-10-16 11:00:00 18.1 3 Sudeste 8 Este 0.2 -- -- 79
2018-10-16 10:00:00 15.7 4 Este 7 Este 0 -- -- 88
2018-10-16 09:00:00 12.6 4 Noroeste 9 Noroeste 0 -- -- 96
2018-10-16 08:00:00 12.1 7 Noroeste 12 Noroeste 0 -- -- 94
2018-10-16 07:00:00 12 5 Noroeste 16 Noroeste 0 -- -- 94
2018-10-16 06:00:00 11.9 10 Noroeste 15 Noroeste 0 -- -- 96
2018-10-16 05:00:00 11.8 3 Noroeste 14 Noroeste 0 -- -- 94
2018-10-16 04:00:00 12.6 8 Noroeste 11 Noroeste 0 -- -- 94
2018-10-16 03:00:00 12.9 8 Noroeste 15 Oeste 0 -- -- 93
2018-10-16 02:00:00 13.1 10 Noroeste 14 Noroeste 0 -- -- 93
2018-10-16 01:00:00 13.5 10 Noroeste 13 Noroeste 0 -- -- 94
2018-10-16 00:00:00 13.6 5 Noroeste 10 Oeste 0 -- -- 95
2018-10-15 23:00:00 14.1 7 Oeste 10 Noroeste 0 -- -- 93
2018-10-15 22:00:00 14.7 4 Noroeste 12 Noroeste 0 -- -- 94
2018-10-15 21:00:00 15.5 5 Noroeste 8 Noroeste 0 -- -- 93
2018-10-15 20:00:00 16.2 3 Oeste 9 Noroeste 0 -- -- 90
2018-10-15 19:00:00 17.2 6 Noroeste 21 Oeste 0 -- -- 85
2018-10-15 18:00:00 19.6 6 Oeste 17 Este 0.6 -- -- 81
2018-10-15 17:00:00 20.1 4 Este 16 Este 0 -- -- 70
2018-10-15 16:00:00 20.9 8 Este 18 Este 0 -- -- 68
2018-10-15 15:00:00 20.9 9 Este 20 Este 0 -- -- 66
2018-10-15 14:00:00 20.8 6 Sudeste 13 Este 0 -- -- 61
2018-10-15 13:00:00 20.7 5 Nordeste 13 Noroeste 0 -- -- 64
2018-10-15 12:00:00 19.2 8 Noroeste 19 Noroeste 0 -- -- 79
2018-10-15 11:00:00 18.1 8 Noroeste 15 Noroeste 0 -- -- 86
2018-10-15 10:00:00 16.5 3 Noroeste 15 Noroeste 0 -- -- 93
2018-10-15 09:00:00 16.8 3 Noroeste 5 Noroeste 0 -- -- 98
2018-10-15 08:00:00 17.4 2 Sudeste 16 Sur 0.6 -- -- 98
2018-10-15 07:00:00 17.6 4 Noroeste 8 Noroeste 0 -- -- 97
2018-10-15 06:00:00 17.5 4 Noroeste 12 Noroeste 0.2 -- -- 97
2018-10-15 05:00:00 16.8 9 Noroeste 14 Noroeste 0 -- -- 97
2018-10-15 04:00:00 16.3 10 Noroeste 15 Noroeste 0 -- -- 96
2018-10-15 03:00:00 17.2 5 Este 39 Este 2.6 -- -- 95
2018-10-15 02:00:00 18 16 Este 46 Este 2.8 -- -- 96
2018-10-15 01:00:00 18.9 23 Este 54 Este 11.8 -- -- 96
2018-10-15 00:00:00 19.2 18 Este 46 Este 5.4 -- -- 96
2018-10-14 23:00:00 19.5 17 Este 39 Este 1.4 -- -- 95
2018-10-14 22:00:00 19.6 19 Este 40 Este 1.2 -- -- 95
2018-10-14 21:00:00 19.2 13 Este 32 Este 8.8 -- -- 96
2018-10-14 20:00:00 19.3 9 Este 29 Nordeste 2 -- -- 94
2018-10-14 19:00:00 20 6 Nordeste 28 Este 1 -- -- 89
2018-10-14 18:00:00 20.6 11 Este 32 Este 0 -- -- 86
2018-10-14 17:00:00 21.5 17 Este 36 Este 0 -- -- 82
2018-10-14 16:00:00 21.1 19 Este 32 Este 0.2 -- -- 86
2018-10-14 15:00:00 22 17 Sudeste 29 Este 0 -- -- 82
2018-10-14 14:00:00 21.6 10 Este 28 Este 0.2 -- -- 85
2018-10-14 13:00:00 22.7 18 Este 29 Sudeste 0 -- -- 79
2018-10-14 12:00:00 21.1 5 Este 13 Nordeste 0.4 -- -- 94
2018-10-14 11:00:00 19.7 4 Nordeste 10 Este 0 -- -- 94
2018-10-14 10:00:00 18.4 4 Noroeste 11 Oeste 0 -- -- 96
2018-10-14 09:00:00 17.1 6 Noroeste 9 Noroeste 0 -- -- 98
2018-10-14 08:00:00 16.6 6 Noroeste 9 Noroeste 0 -- -- 98
2018-10-14 07:00:00 16.8 3 Noroeste 7 Noroeste 0 -- -- 97
2018-10-14 06:00:00 17.5 4 Oeste 10 Oeste 0 -- -- 95
2018-10-14 05:00:00 18 3 Norte 10 Noroeste 0 -- -- 96
2018-10-14 04:00:00 17.7 7 Noroeste 11 Noroeste 0 -- -- 97
2018-10-14 03:00:00 17.7 10 Noroeste 12 Noroeste 0 -- -- 97
2018-10-14 02:00:00 17.4 5 Noroeste 10 Noroeste 0 -- -- 97
2018-10-14 01:00:00 17.7 7 Noroeste 9 Noroeste 0 -- -- 98
2018-10-14 00:00:00 17.9 5 Noroeste 6 Noroeste 0 -- -- 99
2018-10-13 23:00:00 18.2 0 Calma 5 Sudoeste 0 -- -- 98
2018-10-13 22:00:00 19.1 3 Oeste 5 Sudoeste 0 -- -- 97
2018-10-13 21:00:00 19.8 0 Calma 3 Sudeste 0 -- -- 95
2018-10-13 20:00:00 20.6 0 Calma 9 Sudeste 0 -- -- 93
2018-10-13 19:00:00 21.1 6 Este 12 Sudeste 0 -- -- 91
2018-10-13 18:00:00 21.6 4 Este 10 Este 0 -- -- 89
2018-10-13 17:00:00 21.6 5 Este 11 Sudeste 0 -- -- 87
2018-10-13 16:00:00 21.6 10 Sudeste 17 Sudeste 0 -- -- 87
2018-10-13 15:00:00 22.5 9 Sudeste 13 Este 0 -- -- 87
2018-10-13 14:00:00 21.5 9 Sudeste 15 Sudeste 0 -- -- 92
2018-10-13 13:00:00 21.4 3 Este 5 Este 0 -- -- 93
2018-10-13 12:00:00 20.5 2 Noroeste 4 Noroeste 0 -- -- 95
2018-10-13 11:00:00 19.7 2 Este 15 Sur 4.2 -- -- 96
2018-10-13 10:00:00 19.8 4 Noroeste 8 Noroeste 1.4 -- -- 91
2018-10-13 09:00:00 19.2 6 Noroeste 8 Noroeste 0 -- -- 93
2018-10-13 08:00:00 18.8 4 Noroeste 7 Noroeste 0 -- -- 94
2018-10-13 07:00:00 18.8 2 Noroeste 8 Noroeste 0 -- -- 93
2018-10-13 06:00:00 18.8 7 Noroeste 9 Oeste 0 -- -- 95
2018-10-13 05:00:00 18.5 3 Noroeste 5 Noroeste 0 -- -- 96
2018-10-13 04:00:00 18.6 0 Calma 4 Noroeste 0 -- -- 96
2018-10-13 03:00:00 19.2 0 Calma 8 Noroeste 0 -- -- 94
2018-10-13 02:00:00 19.7 3 Noroeste 5 Noroeste 0 -- -- 95
2018-10-13 01:00:00 19.7 0 Calma 4 Noroeste 0 -- -- 95
2018-10-13 00:00:00 19.4 0 Calma 3 Noroeste 0 -- -- 96
2018-10-12 23:00:00 19.5 2 Este 3 Este 0 -- -- 93
2018-10-12 22:00:00 19.8 0 Calma 4 Noroeste 0 -- -- 91
2018-10-12 21:00:00 21 0 Calma 5 Este 0 -- -- 87
2018-10-12 20:00:00 21.4 5 Sudeste 17 Sudeste 0 -- -- 84
2018-10-12 19:00:00 22.3 10 Sudeste 18 Sudeste 0 -- -- 83
2018-10-12 18:00:00 23.6 12 Sudeste 21 Sudeste 0 -- -- 77
2018-10-12 17:00:00 24.5 15 Sudeste 23 Sudeste 0 -- -- 74
2018-10-12 16:00:00 25.3 11 Sudeste 18 Sudeste 0 -- -- 68
2018-10-12 15:00:00 24.5 11 Sudeste 20 Sudeste 0 -- -- 70
2018-10-12 14:00:00 24 4 Nordeste 15 Sudeste 0 -- -- 71
2018-10-12 13:00:00 23.6 6 Sudoeste 11 Oeste 0 -- -- 72
2018-10-12 12:00:00 21.5 0 Calma 4 Oeste 0 -- -- 81
2018-10-12 11:00:00 19 2 Noroeste 5 Noroeste 0 -- -- 86
2018-10-12 10:00:00 17.4 4 Noroeste 10 Noroeste 0 -- -- 89
2018-10-12 09:00:00 15.8 8 Noroeste 12 Noroeste 0 -- -- 92
2018-10-12 08:00:00 14.9 3 Noroeste 13 Noroeste 0 -- -- 94
2018-10-12 07:00:00 15 9 Noroeste 13 Noroeste 0 -- -- 94
2018-10-12 06:00:00 15 12 Noroeste 15 Noroeste 0 -- -- 94
2018-10-12 05:00:00 15.4 5 Noroeste 12 Noroeste 0 -- -- 91
2018-10-12 04:00:00 15.5 9 Noroeste 13 Noroeste 0 -- -- 91
2018-10-12 03:00:00 15.6 6 Noroeste 12 Noroeste 0 -- -- 90
2018-10-12 02:00:00 15.7 9 Noroeste 12 Noroeste 0 -- -- 90
2018-10-12 01:00:00 16.1 7 Noroeste 13 Noroeste 0 -- -- 93
2018-10-12 00:00:00 16.8 5 Noroeste 12 Oeste 0 -- -- 90
2018-10-11 23:00:00 17.4 8 Noroeste 11 Noroeste 0 -- -- 89
2018-10-11 22:00:00 19.9 5 Este 11 Sudeste 0 -- -- 85
2018-10-11 21:00:00 20.7 2 Este 10 Sudeste 0 -- -- 81
2018-10-11 20:00:00 21.7 4 Sudeste 15 Sudoeste 0 -- -- 75
2018-10-11 19:00:00 22.8 6 Sudoeste 18 Sudeste 0 -- -- 67
2018-10-11 18:00:00 24.1 9 Sudeste 27 Sudeste 0 -- -- 66
2018-10-11 17:00:00 26.2 14 Sudeste 42 Sudeste 0 -- -- 62
2018-10-11 16:00:00 26.2 13 Sudeste 22 Sur 0 -- -- 60
2018-10-11 15:00:00 25.9 10 Sur 27 Sudeste 0 -- -- 62
2018-10-11 14:00:00 25.4 14 Sudeste 23 Sur 0 -- -- 59
2018-10-11 13:00:00 23.9 14 Sudeste 25 Sur 0 -- -- 66
2018-10-11 12:00:00 22.7 8 Sudeste 19 Sudoeste 0 -- -- 71
2018-10-11 11:00:00 19.2 4 Sudeste 8 Este 0 -- -- 87
2018-10-11 10:00:00 16.8 5 Este 10 Sudeste 0 -- -- 93
2018-10-11 09:00:00 14.8 3 Noroeste 10 Noroeste 0 -- -- 98
2018-10-11 08:00:00 13.4 4 Noroeste 6 Noroeste 0 -- -- 98
2018-10-11 07:00:00 14.1 3 Norte 10 Noroeste 0 -- -- 97
2018-10-11 06:00:00 14.4 7 Noroeste 11 Noroeste 0 -- -- 97
2018-10-11 05:00:00 14 4 Noroeste 7 Noroeste 0 -- -- 98
2018-10-11 04:00:00 14.4 2 Oeste 5 Oeste 0 -- -- 97
2018-10-11 03:00:00 15.1 0 Calma 12 Oeste 0 -- -- 94
2018-10-11 02:00:00 15.3 6 Noroeste 9 Noroeste 0 -- -- 95
2018-10-11 01:00:00 15.8 4 Noroeste 11 Oeste 0 -- -- 95
2018-10-11 00:00:00 16.6 4 Norte 12 Noroeste 0 -- -- 94
2018-10-10 23:00:00 16.9 9 Noroeste 14 Oeste 0 -- -- 94
2018-10-10 22:00:00 17.5 10 Noroeste 16 Noroeste 0 -- -- 93
2018-10-10 21:00:00 18.9 0 Calma 5 Noroeste 0 -- -- 90
2018-10-10 20:00:00 20 2 Nordeste 7 Sudeste 0 -- -- 83
2018-10-10 19:00:00 20.8 5 Sur 15 Este 0 -- -- 77
2018-10-10 18:00:00 21.9 9 Sudeste 14 Este 0 -- -- 74
2018-10-10 17:00:00 23 8 Sudeste 16 Sudeste 0 -- -- 68
2018-10-10 16:00:00 23 8 Norte 17 Nordeste 0 -- -- 70
2018-10-10 15:00:00 23.1 9 Este 15 Este 0 -- -- 68
2018-10-10 14:00:00 22.2 6 Nordeste 17 Nordeste 0 -- -- 73
2018-10-10 13:00:00 21.4 9 Norte 21 Norte 0 -- -- 76
2018-10-10 12:00:00 20.4 10 Norte 23 Norte 0 -- -- 79
2018-10-10 11:00:00 19.3 3 Noroeste 14 Norte 0 -- -- 89
2018-10-10 10:00:00 16.4 4 Noroeste 8 Noroeste 1.4 -- -- 97
2018-10-10 09:00:00 16 0 Calma 13 Noroeste 0.2 -- -- 95
2018-10-10 08:00:00 16.2 4 Noroeste 17 Norte 0.2 -- -- 93
2018-10-10 07:00:00 16.1 2 Noroeste 13 Nordeste 0 -- -- 93
2018-10-10 06:00:00 15.9 6 Noroeste 10 Noroeste 0 -- -- 94
2018-10-10 05:00:00 15.8 0 Calma 6 Este 0 -- -- 94
2018-10-10 04:00:00 16.1 4 Norte 13 Norte 0 -- -- 92
2018-10-10 03:00:00 16.2 8 Norte 22 Norte 0 -- -- 87
2018-10-10 02:00:00 16.3 5 Norte 14 Norte 0 -- -- 92
2018-10-10 01:00:00 16.4 5 Norte 23 Norte 0.8 -- -- 91
2018-10-10 00:00:00 16.6 11 Norte 23 Norte 3.8 -- -- 95
2018-10-09 23:00:00 15.9 8 Noroeste 24 Norte 4.2 -- -- 95
2018-10-09 22:00:00 17.3 12 Norte 32 Norte 1.6 -- -- 89
2018-10-09 21:00:00 18.2 5 Norte 18 Norte 4.6 -- -- 93
2018-10-09 20:00:00 19.7 6 Nordeste 16 Norte 0.6 -- -- 82
2018-10-09 19:00:00 20.9 5 Nordeste 15 Nordeste 0 -- -- 70
2018-10-09 18:00:00 21.5 6 Este 18 Este 0 -- -- 63
2018-10-09 17:00:00 22.2 6 Este 20 Este 0 -- -- 56
2018-10-09 16:00:00 23.1 10 Este 19 Sudeste 0 -- -- 53
2018-10-09 15:00:00 22.4 4 Nordeste 19 Sudeste 0 -- -- 56
2018-10-09 14:00:00 22.7 14 Sudeste 31 Este 0 -- -- 52
2018-10-09 13:00:00 23 16 Sudeste 30 Sudeste 0 -- -- 54
2018-10-09 12:00:00 21.2 10 Este 24 Nordeste 0 -- -- 65
2018-10-09 11:00:00 20.1 9 Nordeste 26 Nordeste 0 -- -- 71
2018-10-09 10:00:00 18.9 11 Nordeste 22 Norte 0 -- -- 75
2018-10-09 09:00:00 15.5 2 Oeste 9 Noroeste 0 -- -- 84
2018-10-09 08:00:00 13.4 4 Noroeste 11 Noroeste 0 -- -- 88
2018-10-09 07:00:00 13.3 4 Noroeste 13 Sur 0 -- -- 90
2018-10-09 06:00:00 13.5 6 Noroeste 9 Oeste 0 -- -- 91
2018-10-09 05:00:00 13.1 3 Noroeste 9 Sudoeste 0 -- -- 91
2018-10-09 04:00:00 12.9 3 Noroeste 7 Norte 0 -- -- 85
2018-10-09 03:00:00 12.6 0 Calma 7 Oeste 0 -- -- 84
2018-10-09 02:00:00 13.3 3 Norte 7 Noroeste 0 -- -- 84
2018-10-09 01:00:00 12.6 3 Noroeste 8 Noroeste 0 -- -- 86
2018-10-09 00:00:00 11.8 2 Este 9 Noroeste 0 -- -- 86
2018-10-08 23:00:00 13.2 5 Oeste 12 Noroeste 0 -- -- 77
2018-10-08 22:00:00 13.5 7 Noroeste 13 Noroeste 0 -- -- 77
2018-10-08 21:00:00 14 6 Noroeste 9 Noroeste 0 -- -- 77
2018-10-08 20:00:00 15.2 4 Oeste 8 Este 0 -- -- 76
2018-10-08 19:00:00 17.8 6 Sudeste 12 Sudeste 0 -- -- 69
2018-10-08 18:00:00 18.6 5 Sudeste 10 Este 0 -- -- 61
2018-10-08 17:00:00 19.1 3 Este 12 Este 0 -- -- 56
2018-10-08 16:00:00 19.3 3 Sudeste 12 Este 0 -- -- 58
2018-10-08 15:00:00 18.7 4 Sur 9 Este 0 -- -- 59
2018-10-08 14:00:00 17.6 6 Este 10 Este 0 -- -- 64
2018-10-08 13:00:00 17.1 8 Sudeste 13 Este 0 -- -- 68
2018-10-08 12:00:00 16.1 5 Sudeste 12 Este 0 -- -- 81
2018-10-08 11:00:00 15.7 0 Calma 5 Este 0 -- -- 82
2018-10-08 10:00:00 14.6 2 Sudeste 6 Sudeste 0 -- -- 85
2018-10-08 09:00:00 12 0 Calma 8 Sudeste 0 -- -- 97
2018-10-08 08:00:00 11.2 0 Calma 12 Noroeste 0 -- -- 91
2018-10-08 07:00:00 11.8 8 Noroeste 11 Oeste 0 -- -- 92
2018-10-08 06:00:00 12.3 5 Sudeste 8 Sudeste 0 -- -- 95
2018-10-08 05:00:00 12.4 4 Sudoeste 7 Sudoeste 0 -- -- 96
2018-10-08 04:00:00 12.4 4 Sudoeste 5 Sudoeste 0 -- -- 96
2018-10-08 03:00:00 12.4 0 Calma 6 Este 0 -- -- 96
2018-10-08 02:00:00 12.2 2 Noroeste 6 Sudeste 0 -- -- 94
2018-10-08 01:00:00 12.9 4 Sudeste 9 Noroeste 0 -- -- 92
2018-10-08 00:00:00 13.7 5 Noroeste 13 Noroeste 0 -- -- 87
2018-10-07 23:00:00 14.3 7 Noroeste 12 Noroeste 0 -- -- 83
2018-10-07 22:00:00 13.9 7 Noroeste 12 Noroeste 0 -- -- 86
2018-10-07 21:00:00 13.8 4 Noroeste 15 Nordeste 1.4 -- -- 91
2018-10-07 20:00:00 15.8 6 Norte 21 Este 0 -- -- 70
2018-10-07 19:00:00 17.9 12 Sudeste 24 Este 0 -- -- 72
2018-10-07 18:00:00 18.5 14 Sudeste 30 Sudeste 0 -- -- 67
2018-10-07 17:00:00 20.3 20 Sudeste 28 Sudeste 0 -- -- 57
2018-10-07 16:00:00 21.1 15 Sudeste 24 Este 0 -- -- 49
2018-10-07 15:00:00 21.9 16 Sur 35 Sur 0 -- -- 40
2018-10-07 14:00:00 21.8 13 Sur 29 Este 0 -- -- 41
2018-10-07 13:00:00 19.5 14 Sudeste 22 Sudeste 0 -- -- 45
2018-10-07 12:00:00 17.3 9 Este 14 Sudeste 0 -- -- 63
2018-10-07 11:00:00 16.2 5 Este 11 Sudeste 0 -- -- 68
2018-10-07 10:00:00 17.3 4 Este 16 Este 0 -- -- 62
2018-10-07 09:00:00 15.1 9 Sudoeste 16 Sudoeste 0 -- -- 64
2018-10-07 08:00:00 14.9 9 Noroeste 15 Norte 0 -- -- 79
2018-10-07 07:00:00 16.7 6 Nordeste 22 Nordeste 0 -- -- 72
2018-10-07 06:00:00 18.6 3 Este 10 Oeste 0 -- -- 83
2018-10-07 05:00:00 18.2 3 Este 9 Oeste 0 -- -- 92
2018-10-07 04:00:00 18.2 4 Oeste 7 Norte 0 -- -- 94
2018-10-07 03:00:00 17.5 3 Noroeste 8 Oeste 0 -- -- 92
2018-10-07 02:00:00 17.8 2 Sur 5 Sudoeste 0 -- -- 91
2018-10-07 01:00:00 19 3 Noroeste 13 Noroeste 0 -- -- 87
2018-10-07 00:00:00 17.4 6 Noroeste 8 Noroeste 0 -- -- 89
2018-10-06 23:00:00 16.6 4 Noroeste 5 Noroeste 0 -- -- 88
2018-10-06 22:00:00 18 0 Calma 4 Norte 0 -- -- 82
2018-10-06 21:00:00 20.2 0 Calma 9 Sur 0 -- -- 79
2018-10-06 20:00:00 21.4 6 Sur 21 Sudeste 0 -- -- 74
2018-10-06 19:00:00 22.7 15 Sudeste 26 Sudeste 0 -- -- 69
2018-10-06 18:00:00 23.8 15 Sudeste 32 Sur 0 -- -- 64
2018-10-06 17:00:00 25.6 14 Sudeste 26 Sur 0 -- -- 60
2018-10-06 16:00:00 24.1 16 Sudeste 26 Sudeste 0 -- -- 65
2018-10-06 15:00:00 25.1 18 Sudeste 26 Sudeste 0 -- -- 62
2018-10-06 14:00:00 23.6 10 Sur 23 Sudeste 0 -- -- 62
2018-10-06 13:00:00 23.3 10 Sur 29 Sur 0 -- -- 64
2018-10-06 12:00:00 21 4 Sudeste 9 Sudeste 0 -- -- 72
2018-10-06 11:00:00 19 5 Sudeste 9 Este 0 -- -- 80
2018-10-06 10:00:00 16.7 3 Noroeste 5 Noroeste 0 -- -- 89
2018-10-06 09:00:00 14.1 0 Calma 9 Oeste 0 -- -- 94
2018-10-06 08:00:00 12 6 Noroeste 7 Noroeste 0 -- -- 96
2018-10-06 07:00:00 12.5 2 Noroeste 7 Noroeste 0 -- -- 95
2018-10-06 06:00:00 12.9 5 Noroeste 9 Noroeste 0 -- -- 95
2018-10-06 05:00:00 13.7 5 Noroeste 9 Noroeste 0 -- -- 92
2018-10-06 04:00:00 13.8 4 Noroeste 5 Noroeste 0 -- -- 91
2018-10-06 03:00:00 15.3 0 Calma 9 Oeste 0 -- -- 89
2018-10-06 02:00:00 15.9 6 Noroeste 13 Noroeste 0 -- -- 89
2018-10-06 01:00:00 16.6 10 Noroeste 17 Noroeste 0 -- -- 87
2018-10-06 00:00:00 17.1 8 Noroeste 12 Noroeste 0 -- -- 86
2018-10-05 23:00:00 17.5 8 Noroeste 12 Noroeste 0 -- -- 87
2018-10-05 22:00:00 17.2 2 Noroeste 4 Noroeste 0 -- -- 85
2018-10-05 21:00:00 18 3 Noroeste 5 Sudeste 0 -- -- 79
2018-10-05 20:00:00 20.3 3 Este 13 Sudeste 0 -- -- 75
2018-10-05 19:00:00 21.9 11 Sudeste 19 Sudeste 0 -- -- 67
2018-10-05 18:00:00 23.7 13 Sudeste 23 Sudeste 0 -- -- 58
2018-10-05 17:00:00 24.8 14 Sudeste 24 Sudeste 0 -- -- 53
2018-10-05 16:00:00 25.3 13 Sudeste 24 Sudeste 0 -- -- 52
2018-10-05 15:00:00 25.9 13 Sudeste 24 Sudeste 0 -- -- 50
2018-10-05 14:00:00 25.9 9 Sudeste 20 Este 0 -- -- 44
2018-10-05 13:00:00 24.6 6 Nordeste 17 Este 0 -- -- 45
2018-10-05 12:00:00 23.8 6 Sudeste 13 Sudoeste 0 -- -- 51
2018-10-05 11:00:00 20.9 4 Sudeste 7 Este 0 -- -- 57
2018-10-05 10:00:00 17.7 0 Calma 8 Este 0 -- -- 67
2018-10-05 09:00:00 13.7 0 Calma 4 Noroeste 0 -- -- 86
2018-10-05 08:00:00 11.3 0 Calma 6 Noroeste 0 -- -- 86
2018-10-05 07:00:00 12.9 3 Noroeste 8 Noroeste 0 -- -- 84
2018-10-05 06:00:00 12.7 3 Oeste 11 Oeste 0 -- -- 81
2018-10-05 05:00:00 13.6 3 Norte 11 Noroeste 0 -- -- 76
2018-10-05 04:00:00 13.9 7 Noroeste 17 Noroeste 0 -- -- 75
2018-10-05 03:00:00 13.7 12 Noroeste 16 Noroeste 0 -- -- 77
2018-10-05 02:00:00 13.8 9 Noroeste 14 Noroeste 0 -- -- 76
2018-10-05 01:00:00 13.7 9 Noroeste 14 Noroeste 0 -- -- 78
2018-10-05 00:00:00 14.2 8 Noroeste 13 Noroeste 0 -- -- 76
2018-10-04 23:00:00 14.8 9 Noroeste 14 Oeste 0 -- -- 73
2018-10-04 22:00:00 15.9 7 Noroeste 11 Noroeste 0 -- -- 69
2018-10-04 21:00:00 16.8 6 Noroeste 9 Noroeste 0 -- -- 64
2018-10-04 20:00:00 19.9 3 Sudeste 9 Sudeste 0 -- -- 54
2018-10-04 19:00:00 22.7 6 Sudeste 17 Sudeste 0 -- -- 45
2018-10-04 18:00:00 23.9 14 Este 24 Sudeste 0 -- -- 44
2018-10-04 17:00:00 25.6 19 Sudeste 32 Sudeste 0 -- -- 47
2018-10-04 16:00:00 27 12 Sudeste 20 Este 0 -- -- 38
2018-10-04 15:00:00 26.9 5 Sudeste 22 Sudeste 0 -- -- 36
2018-10-04 14:00:00 25.6 6 Sudeste 18 Este 0 -- -- 40
2018-10-04 13:00:00 24.3 5 Sur 15 Sudeste 0 -- -- 46
2018-10-04 12:00:00 22.6 4 Sudoeste 13 Sudeste 0 -- -- 53
2018-10-04 11:00:00 20.9 3 Sudoeste 8 Sudeste 0 -- -- 55
2018-10-04 10:00:00 17.8 4 Sudeste 6 Sudeste 0 -- -- 62
2018-10-04 09:00:00 14.3 0 Calma 10 Noroeste 0 -- -- 75
2018-10-04 08:00:00 12 7 Noroeste 12 Noroeste 0 -- -- 79
2018-10-04 07:00:00 12.7 9 Noroeste 14 Noroeste 0 -- -- 76
2018-10-04 06:00:00 12.3 8 Noroeste 10 Noroeste 0 -- -- 77
2018-10-04 05:00:00 13.4 6 Noroeste 13 Noroeste 0 -- -- 73
2018-10-04 04:00:00 13.4 8 Noroeste 15 Noroeste 0 -- -- 73
2018-10-04 03:00:00 13.8 7 Noroeste 16 Noroeste 0 -- -- 72
2018-10-04 02:00:00 14 10 Noroeste 15 Noroeste 0 -- -- 72
2018-10-04 01:00:00 14.4 9 Noroeste 13 Noroeste 0 -- -- 70
2018-10-04 00:00:00 15 11 Noroeste 15 Noroeste 0 -- -- 69
2018-10-03 23:00:00 15.8 8 Noroeste 14 Noroeste 0 -- -- 67
2018-10-03 22:00:00 16.2 10 Noroeste 12 Noroeste 0 -- -- 67
2018-10-03 21:00:00 17.2 5 Noroeste 7 Noroeste 0 -- -- 62
2018-10-03 20:00:00 20.2 0 Calma 15 Sudeste 0 -- -- 52
2018-10-03 19:00:00 22.7 11 Sudeste 20 Sudeste 0 -- -- 50
2018-10-03 18:00:00 24.6 15 Sudeste 30 Sudeste 0 -- -- 43
2018-10-03 17:00:00 25.5 19 Sudeste 27 Sudeste 0 -- -- 39
2018-10-03 16:00:00 26.9 15 Sudeste 32 Sudeste 0 -- -- 33
2018-10-03 15:00:00 26.9 15 Sudeste 26 Sudeste 0 -- -- 30
2018-10-03 14:00:00 26.5 6 Sur 28 Sudeste 0 -- -- 32
2018-10-03 13:00:00 25.2 11 Sudeste 19 Sudeste 0 -- -- 34
2018-10-03 12:00:00 23.1 3 Este 12 Este 0 -- -- 39
2018-10-03 11:00:00 20.2 6 Este 12 Sudeste 0 -- -- 45
2018-10-03 10:00:00 17.4 5 Sudeste 8 Sudeste 0 -- -- 53
2018-10-03 09:00:00 12.8 3 Noroeste 7 Noroeste 0 -- -- 72
2018-10-03 08:00:00 9.8 3 Noroeste 6 Noroeste 0 -- -- 79
2018-10-03 07:00:00 10.1 0 Calma 5 Noroeste 0 -- -- 75
2018-10-03 06:00:00 10.9 2 Este 10 Noroeste 0 -- -- 73
2018-10-03 05:00:00 12.1 3 Noroeste 12 Oeste 0 -- -- 66
2018-10-03 04:00:00 12 2 Noroeste 10 Noroeste 0 -- -- 69
2018-10-03 03:00:00 12.1 3 Norte 10 Noroeste 0 -- -- 69
2018-10-03 02:00:00 12.6 5 Noroeste 16 Noroeste 0 -- -- 67
2018-10-03 01:00:00 14 9 Oeste 14 Oeste 0 -- -- 64
2018-10-03 00:00:00 14.8 12 Noroeste 17 Noroeste 0 -- -- 60
2018-10-02 23:00:00 15.2 12 Noroeste 15 Noroeste 0 -- -- 59
2018-10-02 22:00:00 15.9 9 Noroeste 15 Noroeste 0 -- -- 56
2018-10-02 21:00:00 17.1 5 Noroeste 10 Noroeste 0 -- -- 53
2018-10-02 20:00:00 19.1 2 Nordeste 12 Nordeste 0 -- -- 51
2018-10-02 19:00:00 22.6 9 Este 24 Este 0 -- -- 40
2018-10-02 18:00:00 24.9 12 Este 26 Este 0 -- -- 31
2018-10-02 17:00:00 25.7 10 Noroeste 22 Noroeste 0 -- -- 23
2018-10-02 16:00:00 26.2 6 Sudeste 19 Oeste 0 -- -- 21
2018-10-02 15:00:00 24.9 6 Noroeste 17 Noroeste 0 -- -- 24
2018-10-02 14:00:00 24.2 6 Noroeste 20 Norte 0 -- -- 26
2018-10-02 13:00:00 22 14 Oeste 31 Oeste 0 -- -- 26
2018-10-02 12:00:00 21.2 6 Noroeste 20 Sudoeste 0 -- -- 27
2018-10-02 11:00:00 18.4 3 Nordeste 11 Este 0 -- -- 35
2018-10-02 10:00:00 14.7 8 Sudeste 12 Sudeste 0 -- -- 53
2018-10-02 09:00:00 9.4 3 Oeste 8 Sudeste 0 -- -- 79
2018-10-02 08:00:00 7.4 0 Calma 7 Noroeste 0 -- -- 83
2018-10-02 07:00:00 8 3 Oeste 6 Sudoeste 0 -- -- 81
2018-10-02 06:00:00 8.4 2 Noroeste 5 Noroeste 0 -- -- 83
2018-10-02 05:00:00 9.4 2 Noroeste 7 Sudeste 0 -- -- 81
2018-10-02 04:00:00 10.4 2 Este 7 Norte 0 -- -- 83
2018-10-02 03:00:00 10.9 6 Sudeste 9 Este 0 -- -- 80
2018-10-02 02:00:00 11.8 6 Oeste 12 Noroeste 0 -- -- 75
2018-10-02 01:00:00 13.5 9 Noroeste 13 Noroeste 0 -- -- 75
2018-10-02 00:00:00 14.3 2 Este 13 Oeste 0 -- -- 70
2018-10-01 23:00:00 15.6 3 Norte 11 Oeste 0 -- -- 60
2018-10-01 22:00:00 16.8 7 Oeste 15 Norte 0 -- -- 55
2018-10-01 21:00:00 18.8 5 Norte 14 Norte 0 -- -- 46
2018-10-01 20:00:00 19.7 7 Este 24 Sudeste 0 -- -- 69
2018-10-01 19:00:00 20.9 17 Sudeste 30 Sudeste 0 -- -- 71
2018-10-01 18:00:00 22.9 21 Sudeste 36 Sudeste 0 -- -- 60
2018-10-01 17:00:00 25.6 16 Sudeste 28 Sudeste 0 -- -- 44
2018-10-01 16:00:00 25.8 12 Sudoeste 32 Sudeste 0 -- -- 31
2018-10-01 15:00:00 25.2 13 Sur 30 Sudoeste 0 -- -- 35
2018-10-01 14:00:00 24 14 Sur 29 Sur 0 -- -- 44
2018-10-01 13:00:00 24.7 14 Sur 28 Sudeste 0 -- -- 53
2018-10-01 12:00:00 22.7 10 Sudoeste 17 Sudoeste 0 -- -- 53
2018-10-01 11:00:00 21 3 Sudoeste 12 Sur 0 -- -- 56
2018-10-01 10:00:00 19.4 8 Sudeste 11 Sudeste 0 -- -- 65
2018-10-01 09:00:00 17.5 4 Este 11 Sudeste 0 -- -- 75
2018-10-01 08:00:00 16.9 3 Sudeste 6 Este 0 -- -- 79
2018-10-01 07:00:00 17.1 4 Nordeste 8 Este 0 -- -- 78
2018-10-01 06:00:00 17.7 5 Noroeste 15 Noroeste 0 -- -- 74
2018-10-01 05:00:00 17.6 12 Noroeste 15 Noroeste 0 -- -- 74
2018-10-01 04:00:00 17.9 7 Noroeste 14 Noroeste 0 -- -- 73
2018-10-01 03:00:00 18.2 6 Noroeste 12 Noroeste 0 -- -- 74
2018-10-01 02:00:00 17.9 6 Noroeste 10 Oeste 0 -- -- 75
2018-10-01 01:00:00 18.7 5 Noroeste 10 Noroeste 0 -- -- 76
2018-10-01 00:00:00 19.1 8 Noroeste 10 Noroeste 0 -- -- 79
2018-09-30 23:00:00 20.2 3 Norte 12 Nordeste 0 -- -- 78
2018-09-30 22:00:00 21 4 Nordeste 18 Norte 0 -- -- 77
2018-09-30 21:00:00 21.9 6 Nordeste 20 Nordeste 0 -- -- 80
2018-09-30 20:00:00 23.5 2 Sur 17 Sudoeste 0 -- -- 65
2018-09-30 19:00:00 25.5 8 Sur 25 Sudeste 0 -- -- 56
2018-09-30 18:00:00 26.8 18 Sudeste 31 Sudeste 0 -- -- 50
2018-09-30 17:00:00 28 13 Sur 30 Sudeste 0 -- -- 46
2018-09-30 16:00:00 28.7 14 Sur 29 Sudeste 0 -- -- 43
2018-09-30 15:00:00 28.1 12 Sur 34 Sudeste 0 -- -- 45
2018-09-30 14:00:00 26.8 14 Sudoeste 28 Sudeste 0 -- -- 50
2018-09-30 13:00:00 26.4 17 Sur 28 Sur 0 -- -- 53
2018-09-30 12:00:00 24.8 13 Sudoeste 26 Sudoeste 0 -- -- 57
2018-09-30 11:00:00 23.1 8 Sudeste 13 Sudeste 0 -- -- 65
2018-09-30 10:00:00 19.4 4 Este 6 Sudeste 0 -- -- 75
2018-09-30 09:00:00 17.4 2 Norte 5 Sudeste 0 -- -- 84
2018-09-30 08:00:00 16.1 0 Calma 5 Noroeste 0 -- -- 84
2018-09-30 07:00:00 16 0 Calma 4 Noroeste 0 -- -- 85
2018-09-30 06:00:00 15.3 2 Noroeste 4 Oeste 0 -- -- 85
2018-09-30 05:00:00 15.7 2 Sudeste 7 Sudeste 0 -- -- 83
2018-09-30 04:00:00 16.2 4 Noroeste 12 Noroeste 0 -- -- 80
2018-09-30 03:00:00 17.6 7 Noroeste 16 Noroeste 0 -- -- 75
2018-09-30 02:00:00 17 8 Noroeste 14 Noroeste 0 -- -- 77
2018-09-30 01:00:00 16.7 6 Noroeste 12 Noroeste 0 -- -- 77
2018-09-30 00:00:00 17.5 6 Noroeste 11 Oeste 0 -- -- 74
2018-09-29 23:00:00 18.7 2 Norte 7 Norte 0 -- -- 68
2018-09-29 22:00:00 20.3 3 Este 12 Nordeste 0 -- -- 62
2018-09-29 21:00:00 20.8 5 Norte 12 Norte 0 -- -- 62
2018-09-29 20:00:00 21.3 4 Nordeste 14 Este 0 -- -- 58
2018-09-29 19:00:00 22.8 10 Este 22 Este 0 -- -- 58
2018-09-29 18:00:00 24.2 13 Este 27 Este 0 -- -- 58
2018-09-29 17:00:00 25.5 15 Este 29 Este 0 -- -- 55
2018-09-29 16:00:00 26.6 14 Este 28 Este 0 -- -- 54
2018-09-29 15:00:00 27.3 15 Este 27 Este 0 -- -- 51
2018-09-29 14:00:00 28.8 12 Sudeste 23 Este 0 -- -- 41
2018-09-29 13:00:00 27.4 5 Sudeste 17 Sudeste 0 -- -- 47
2018-09-29 12:00:00 26 9 Este 17 Sudeste 0 -- -- 51
2018-09-29 11:00:00 24.6 5 Sudeste 11 Sudeste 0 -- -- 53
2018-09-29 10:00:00 20.6 2 Oeste 5 Norte 0 -- -- 70
2018-09-29 09:00:00 17.1 2 Noroeste 8 Noroeste 0 -- -- 84
2018-09-29 08:00:00 14.9 5 Noroeste 9 Noroeste 0 -- -- 87
2018-09-29 07:00:00 14.8 4 Noroeste 6 Noroeste 0 -- -- 87
2018-09-29 06:00:00 15.2 3 Noroeste 10 Noroeste 0 -- -- 86
2018-09-29 05:00:00 16.4 8 Noroeste 10 Noroeste 0 -- -- 82
2018-09-29 04:00:00 16.4 7 Noroeste 10 Noroeste 0 -- -- 82
2018-09-29 03:00:00 16.6 5 Noroeste 7 Oeste 0 -- -- 80
2018-09-29 02:00:00 17.5 3 Noroeste 12 Noroeste 0 -- -- 77
2018-09-29 01:00:00 17.8 6 Noroeste 12 Noroeste 0 -- -- 75
2018-09-29 00:00:00 18.3 8 Noroeste 12 Noroeste 0 -- -- 74
2018-09-28 23:00:00 18.9 6 Noroeste 11 Noroeste 0 -- -- 73
2018-09-28 22:00:00 20.3 3 Oeste 11 Noroeste 0 -- -- 68
2018-09-28 21:00:00 21.4 5 Noroeste 15 Sudoeste 0 -- -- 62
2018-09-28 20:00:00 24.6 8 Sudoeste 17 Sudeste 0 -- -- 53
2018-09-28 19:00:00 27.4 9 Sur 24 Sur 0 -- -- 45
2018-09-28 18:00:00 29.9 13 Sudoeste 24 Sudoeste 0 -- -- 38
2018-09-28 17:00:00 30.9 11 Sudoeste 19 Sudoeste 0 -- -- 32
2018-09-28 16:00:00 30.3 11 Sudoeste 22 Sudeste 0 -- -- 38
2018-09-28 15:00:00 30.1 15 Sudeste 22 Sudeste 0 -- -- 38
2018-09-28 14:00:00 29 12 Sur 24 Sudeste 0 -- -- 38
2018-09-28 13:00:00 27.2 14 Sudeste 22 Sudeste 0 -- -- 45
2018-09-28 12:00:00 24.4 6 Este 15 Este 0 -- -- 59
2018-09-28 11:00:00 21.6 5 Sudeste 10 Este 0 -- -- 66
2018-09-28 10:00:00 18.4 3 Sudeste 7 Este 0 -- -- 81
2018-09-28 09:00:00 15.1 0 Calma 6 Noroeste 0 -- -- 94
2018-09-28 08:00:00 12.6 6 Oeste 10 Oeste 0 -- -- 95
2018-09-28 07:00:00 12.6 4 Noroeste 10 Noroeste 0 -- -- 92
2018-09-28 06:00:00 13.1 7 Noroeste 12 Noroeste 0 -- -- 93
2018-09-28 05:00:00 13.4 8 Noroeste 10 Noroeste 0 -- -- 92
2018-09-28 04:00:00 14 6 Noroeste 11 Noroeste 0 -- -- 92
2018-09-28 03:00:00 14 8 Noroeste 11 Noroeste 0 -- -- 92
2018-09-28 02:00:00 14.5 8 Noroeste 10 Noroeste 0 -- -- 91
2018-09-28 01:00:00 15.2 6 Noroeste 14 Noroeste 0 -- -- 90
2018-09-28 00:00:00 15.6 11 Noroeste 14 Noroeste 0 -- -- 89
2018-09-27 23:00:00 16.1 8 Noroeste 13 Noroeste 0 -- -- 87
2018-09-27 22:00:00 16.9 9 Noroeste 12 Noroeste 0 -- -- 84
2018-09-27 21:00:00 18.2 5 Noroeste 8 Sur 0 -- -- 80
2018-09-27 20:00:00 20.3 5 Sur 12 Sudeste 0 -- -- 73
2018-09-27 19:00:00 22.2 8 Sur 15 Sudeste 0 -- -- 65
2018-09-27 18:00:00 23.1 10 Sudeste 19 Sudeste 0 -- -- 62
2018-09-27 17:00:00 24 12 Sudeste 24 Este 0 -- -- 58
2018-09-27 16:00:00 24.9 16 Sudeste 26 Sudeste 0 -- -- 53
2018-09-27 15:00:00 25.6 10 Sudeste 24 Este 0 -- -- 40
2018-09-27 14:00:00 24.4 8 Sudeste 17 Sudeste 0 -- -- 44
2018-09-27 13:00:00 22.8 5 Norte 16 Sudeste 0 -- -- 52
2018-09-27 12:00:00 21.5 9 Sudeste 17 Sudeste 0 -- -- 63
2018-09-27 11:00:00 19.4 6 Este 10 Sudeste 0 -- -- 65
2018-09-27 10:00:00 16.6 3 Sudeste 12 Oeste 0 -- -- 75
2018-09-27 09:00:00 12.9 7 Noroeste 15 Oeste 0 -- -- 88
2018-09-27 08:00:00 11.7 7 Oeste 11 Noroeste 0 -- -- 89
2018-09-27 07:00:00 11.9 6 Noroeste 13 Noroeste 0 -- -- 91
2018-09-27 06:00:00 12.1 7 Oeste 13 Noroeste 0 -- -- 92
2018-09-27 05:00:00 12.8 8 Noroeste 19 Noroeste 0 -- -- 91
2018-09-27 04:00:00 12.8 13 Noroeste 16 Noroeste 0 -- -- 92
2018-09-27 03:00:00 12.9 9 Noroeste 13 Noroeste 0 -- -- 92
2018-09-27 02:00:00 13.1 8 Noroeste 12 Noroeste 0 -- -- 91
2018-09-27 01:00:00 13.8 8 Noroeste 10 Noroeste 0 -- -- 90
2018-09-27 00:00:00 14.6 7 Noroeste 11 Noroeste 0 -- -- 88
2018-09-26 23:00:00 15.7 5 Noroeste 9 Oeste 0 -- -- 84
2018-09-26 22:00:00 16.7 4 Noroeste 6 Norte 0 -- -- 80
2018-09-26 21:00:00 18.8 2 Este 13 Este 0 -- -- 72
2018-09-26 20:00:00 20 7 Este 21 Este 0 -- -- 69
2018-09-26 19:00:00 21.1 12 Este 22 Sudeste 0 -- -- 66
2018-09-26 18:00:00 21.9 11 Este 27 Este 0 -- -- 63
2018-09-26 17:00:00 22.6 14 Este 24 Sudeste 0 -- -- 62
2018-09-26 16:00:00 22.9 14 Este 38 Este 0 -- -- 60
2018-09-26 15:00:00 23.5 14 Este 28 Este 0 -- -- 55
2018-09-26 14:00:00 24.6 13 Este 30 Este 0 -- -- 50
2018-09-26 13:00:00 24 15 Este 32 Norte 0 -- -- 49
2018-09-26 12:00:00 23.8 14 Este 33 Este 0 -- -- 51
2018-09-26 11:00:00 22.6 9 Nordeste 19 Este 0 -- -- 56
2018-09-26 10:00:00 20.1 5 Oeste 15 Noroeste 0 -- -- 63
2018-09-26 09:00:00 17.5 7 Noroeste 14 Noroeste 0 -- -- 74
2018-09-26 08:00:00 15.9 7 Noroeste 12 Noroeste 0 -- -- 80
2018-09-26 07:00:00 16.1 5 Noroeste 10 Noroeste 0 -- -- 79
2018-09-26 06:00:00 15.7 6 Noroeste 10 Noroeste 0 -- -- 81
2018-09-26 05:00:00 16.3 9 Noroeste 12 Noroeste 0 -- -- 78
2018-09-26 04:00:00 17.1 6 Noroeste 11 Noroeste 0 -- -- 76
2018-09-26 03:00:00 17.3 9 Noroeste 14 Noroeste 0 -- -- 74
2018-09-26 02:00:00 17.4 8 Noroeste 13 Noroeste 0 -- -- 73
2018-09-26 01:00:00 17 8 Noroeste 12 Noroeste 0 -- -- 75
2018-09-26 00:00:00 17 9 Noroeste 13 Noroeste 0 -- -- 75
2018-09-25 23:00:00 16.6 8 Noroeste 12 Noroeste 0 -- -- 78
2018-09-25 22:00:00 18.9 5 Norte 18 Norte 0 -- -- 68
2018-09-25 21:00:00 20.2 4 Nordeste 19 Norte 0 -- -- 62
2018-09-25 20:00:00 21.1 10 Norte 29 Este 0 -- -- 61
2018-09-25 19:00:00 22.7 12 Nordeste 30 Este 0 -- -- 55
2018-09-25 18:00:00 24.2 14 Este 29 Este 0 -- -- 50
2018-09-25 17:00:00 25 13 Nordeste 26 Este 0 -- -- 48
2018-09-25 16:00:00 26 7 Nordeste 19 Sudeste 0 -- -- 43
2018-09-25 15:00:00 25.1 6 Norte 15 Nordeste 0 -- -- 44
2018-09-25 14:00:00 25.7 8 Este 27 Este 0 -- -- 42
2018-09-25 13:00:00 24.6 7 Nordeste 17 Este 0 -- -- 52
2018-09-25 12:00:00 23.3 4 Norte 12 Este 0 -- -- 59
2018-09-25 11:00:00 20.9 3 Sudoeste 8 Sudeste 0 -- -- 67
2018-09-25 10:00:00 19.4 3 Sur 9 Sudeste 0 -- -- 73
2018-09-25 09:00:00 17.4 4 Este 9 Oeste 0 -- -- 85
2018-09-25 08:00:00 15.7 0 Calma 4 Oeste 0 -- -- 94
2018-09-25 07:00:00 15.8 4 Sudoeste 6 Sudoeste 0 -- -- 92
2018-09-25 06:00:00 15.9 5 Noroeste 9 Noroeste 0 -- -- 83
2018-09-25 05:00:00 16.3 2 Nordeste 9 Nordeste 0 -- -- 79
2018-09-25 04:00:00 16.8 3 Norte 8 Nordeste 0 -- -- 79
2018-09-25 03:00:00 17 3 Sudeste 10 Nordeste 0 -- -- 85
2018-09-25 02:00:00 17.4 3 Norte 11 Nordeste 0 -- -- 86
2018-09-25 01:00:00 18.1 4 Norte 9 Norte 0 -- -- 89
2018-09-25 00:00:00 18.7 0 Calma 10 Norte 0 -- -- 90
2018-09-24 23:00:00 19.6 5 Norte 12 Noroeste 4 -- -- 89
2018-09-24 22:00:00 22.7 4 Sur 17 Sudeste 0 -- -- 75
2018-09-24 21:00:00 22.8 10 Sudeste 18 Sudeste 0 -- -- 76
2018-09-24 20:00:00 23.1 10 Sudeste 19 Sudeste 0 -- -- 76
2018-09-24 19:00:00 23.6 13 Sudeste 23 Sudeste 0 -- -- 73
2018-09-24 18:00:00 25 15 Sudeste 26 Sur 0 -- -- 68
2018-09-24 17:00:00 26.2 17 Sudeste 27 Sudeste 0 -- -- 65
2018-09-24 16:00:00 27 17 Sudeste 28 Sur 0 -- -- 64
2018-09-24 15:00:00 27.7 18 Sudeste 28 Sudeste 0 -- -- 62
2018-09-24 14:00:00 27.2 15 Sudeste 23 Sudeste 0 -- -- 62
2018-09-24 13:00:00 26.3 12 Sudeste 17 Sudeste 0 -- -- 66
2018-09-24 12:00:00 26 8 Sur 17 Sudeste 0 -- -- 67
2018-09-24 11:00:00 26.2 8 Sudeste 18 Este 0 -- -- 68
2018-09-24 10:00:00 23.7 4 Nordeste 12 Norte 0 -- -- 78
2018-09-24 09:00:00 21.7 2 Sudoeste 13 Noroeste 0 -- -- 83
2018-09-24 08:00:00 19.1 8 Noroeste 10 Noroeste 0 -- -- 90
2018-09-24 07:00:00 18.8 3 Noroeste 7 Oeste 0 -- -- 92
2018-09-24 06:00:00 19.7 3 Noroeste 8 Oeste 0 -- -- 91
2018-09-24 05:00:00 20.1 0 Calma 8 Noroeste 0 -- -- 89
2018-09-24 04:00:00 20.9 6 Noroeste 13 Noroeste 0 -- -- 87
2018-09-24 03:00:00 21 4 Noroeste 13 Noroeste 0 -- -- 87
2018-09-24 02:00:00 21.5 6 Noroeste 12 Noroeste 0 -- -- 88
2018-09-24 01:00:00 22.1 4 Oeste 12 Noroeste 0 -- -- 86
2018-09-24 00:00:00 22.8 5 Noroeste 11 Noroeste 0 -- -- 85
2018-09-23 23:00:00 23.3 6 Noroeste 14 Noroeste 0 -- -- 83
2018-09-23 22:00:00 23.8 6 Noroeste 8 Noroeste 0 -- -- 81
2018-09-23 21:00:00 25.9 0 Calma 5 Este 0 -- -- 75
2018-09-23 20:00:00 27.4 5 Sudeste 10 Sudeste 0 -- -- 69
2018-09-23 19:00:00 29.2 9 Sudeste 19 Sudeste 0 -- -- 60
2018-09-23 18:00:00 30 14 Sudeste 22 Sudeste 0 -- -- 57
2018-09-23 17:00:00 30.5 15 Sudeste 25 Este 0 -- -- 57
2018-09-23 16:00:00 30.8 14 Sudeste 25 Sudeste 0 -- -- 57
2018-09-23 15:00:00 30.5 13 Sudeste 23 Sudeste 0 -- -- 57
2018-09-23 14:00:00 30 12 Sudeste 23 Sudeste 0 -- -- 53
2018-09-23 13:00:00 29 8 Sudeste 16 Sudeste 0 -- -- 57
2018-09-23 12:00:00 27.5 6 Sur 12 Sur 0 -- -- 63
2018-09-23 11:00:00 25.6 5 Sudeste 10 Sudeste 0 -- -- 71
2018-09-23 10:00:00 23.5 5 Este 8 Sudeste 0 -- -- 78
2018-09-23 09:00:00 20.5 3 Norte 7 Noroeste 0 -- -- 91
2018-09-23 08:00:00 18.7 3 Noroeste 7 Noroeste 0 -- -- 94
2018-09-23 07:00:00 18.3 4 Noroeste 6 Noroeste 0 -- -- 94
2018-09-23 06:00:00 18.7 2 Noroeste 8 Noroeste 0 -- -- 92
2018-09-23 05:00:00 19.3 6 Noroeste 11 Noroeste 0 -- -- 92
2018-09-23 04:00:00 19.3 3 Noroeste 9 Noroeste 0 -- -- 90
2018-09-23 03:00:00 19.7 0 Calma 10 Noroeste 0 -- -- 89
2018-09-23 02:00:00 20.7 9 Noroeste 13 Noroeste 0 -- -- 86
2018-09-23 01:00:00 20.9 12 Noroeste 15 Noroeste 0 -- -- 85
2018-09-23 00:00:00 21.1 9 Noroeste 12 Noroeste 0 -- -- 84
2018-09-22 23:00:00 21.6 8 Oeste 11 Noroeste 0 -- -- 82
2018-09-22 22:00:00 22.3 5 Noroeste 8 Noroeste 0 -- -- 79
2018-09-22 21:00:00 24.1 2 Norte 5 Noroeste 0 -- -- 74
2018-09-22 20:00:00 25.8 2 Este 15 Este 0 -- -- 68
2018-09-22 19:00:00 27.7 4 Nordeste 16 Este 0 -- -- 60
2018-09-22 18:00:00 28.6 8 Este 18 Sudeste 0 -- -- 56
2018-09-22 17:00:00 29.8 11 Este 28 Sudeste 0 -- -- 52
2018-09-22 16:00:00 31.5 10 Este 23 Sudeste 0 -- -- 43
2018-09-22 15:00:00 31.1 9 Sur 24 Sudeste 0 -- -- 42
2018-09-22 14:00:00 29.7 12 Sudeste 26 Sudeste 0 -- -- 52
2018-09-22 13:00:00 28.3 10 Sur 24 Sudeste 0 -- -- 55
2018-09-22 12:00:00 26.7 9 Sur 18 Sudeste 0 -- -- 64
2018-09-22 11:00:00 25.6 8 Sudeste 12 Sudeste 0 -- -- 70
2018-09-22 10:00:00 22.1 2 Este 5 Sudeste 0 -- -- 81
2018-09-22 09:00:00 20.2 3 Noroeste 6 Noroeste 0 -- -- 88
2018-09-22 08:00:00 18.8 4 Noroeste 5 Noroeste 0 -- -- 90
2018-09-22 07:00:00 18.9 6 Noroeste 10 Noroeste 0 -- -- 89
2018-09-22 06:00:00 19.1 4 Noroeste 6 Noroeste 0 -- -- 88
2018-09-22 05:00:00 19.7 2 Oeste 9 Noroeste 0 -- -- 83
2018-09-22 04:00:00 20 3 Noroeste 10 Noroeste 0 -- -- 82
2018-09-22 03:00:00 19.7 5 Noroeste 14 Noroeste 0 -- -- 82
2018-09-22 02:00:00 19.5 11 Noroeste 14 Noroeste 0 -- -- 83
2018-09-22 01:00:00 20 5 Noroeste 8 Noroeste 0 -- -- 82
2018-09-22 00:00:00 20.7 5 Noroeste 7 Noroeste 0 -- -- 82
2018-09-21 23:00:00 21.6 4 Noroeste 6 Noroeste 0 -- -- 81
2018-09-21 22:00:00 23 2 Norte 5 Nordeste 0 -- -- 78
2018-09-21 21:00:00 23.4 0 Calma 6 Sur 0 -- -- 84
2018-09-21 20:00:00 24.2 5 Sur 15 Sudeste 0 -- -- 81
2018-09-21 19:00:00 26.2 11 Sudeste 19 Sudeste 0 -- -- 73
2018-09-21 18:00:00 27.5 13 Sudeste 20 Este 0 -- -- 66
2018-09-21 17:00:00 29.4 10 Este 21 Sudeste 0 -- -- 55
2018-09-21 16:00:00 30.7 14 Sudeste 24 Sudeste 0 -- -- 48
2018-09-21 15:00:00 31.4 15 Sudeste 27 Sudeste 0 -- -- 45
2018-09-21 14:00:00 31.8 15 Sudeste 23 Sudeste 0 -- -- 43
2018-09-21 13:00:00 30.4 11 Este 17 Este 0 -- -- 45
2018-09-21 12:00:00 28.3 8 Sudeste 12 Sudeste 0 -- -- 50
2018-09-21 11:00:00 25.9 6 Sudeste 10 Este 0 -- -- 55
2018-09-21 10:00:00 22.7 3 Sudeste 7 Sur 0 -- -- 65
2018-09-21 09:00:00 19.4 0 Calma 4 Oeste 0 -- -- 82
2018-09-21 08:00:00 16.2 0 Calma 5 Oeste 0 -- -- 87
2018-09-21 07:00:00 16.3 0 Calma 6 Noroeste 0 -- -- 85
2018-09-21 06:00:00 17 0 Calma 6 Noroeste 0 -- -- 79
2018-09-21 05:00:00 17.4 3 Noroeste 9 Noroeste 0 -- -- 78
2018-09-21 04:00:00 18.1 3 Noroeste 10 Noroeste 0 -- -- 74
2018-09-21 03:00:00 18.8 6 Noroeste 12 Noroeste 0 -- -- 70
2018-09-21 02:00:00 19 4 Noroeste 12 Noroeste 0 -- -- 70
2018-09-21 01:00:00 19.6 10 Noroeste 14 Noroeste 0 -- -- 68
2018-09-21 00:00:00 20 8 Noroeste 15 Noroeste 0 -- -- 69
2018-09-20 23:00:00 20.7 12 Noroeste 17 Noroeste 0 -- -- 69
2018-09-20 22:00:00 21.5 10 Noroeste 16 Noroeste 0 -- -- 69
2018-09-20 21:00:00 22.6 11 Noroeste 13 Noroeste 0 -- -- 66
2018-09-20 20:00:00 26 5 Sudeste 16 Sudeste 0 -- -- 50
2018-09-20 19:00:00 28.8 11 Sudeste 23 Sudeste 0 -- -- 42
2018-09-20 18:00:00 29.9 16 Sudeste 24 Sudeste 0 -- -- 42
2018-09-20 17:00:00 30.3 15 Sudeste 26 Este 0 -- -- 42
2018-09-20 16:00:00 30.8 16 Sudeste 27 Sudeste 0 -- -- 43
2018-09-20 15:00:00 31.2 14 Sudeste 23 Sudeste 0 -- -- 40
2018-09-20 14:00:00 30.9 6 Sudeste 19 Sudeste 0 -- -- 40
2018-09-20 13:00:00 29.8 8 Sudeste 21 Sudeste 0 -- -- 47
2018-09-20 12:00:00 27.8 7 Sudeste 13 Sudeste 0 -- -- 65
2018-09-20 11:00:00 24.7 3 Sudeste 9 Sudeste 0 -- -- 74
2018-09-20 10:00:00 22.4 5 Sudeste 6 Sudeste 0 -- -- 84
2018-09-20 09:00:00 19.7 3 Noroeste 9 Noroeste 0 -- -- 91
2018-09-20 08:00:00 17.3 5 Noroeste 10 Noroeste 0 -- -- 96
2018-09-20 07:00:00 16.7 4 Noroeste 8 Noroeste 0 -- -- 97
2018-09-20 06:00:00 17.3 4 Noroeste 8 Noroeste 0 -- -- 95
2018-09-20 05:00:00 17.3 3 Norte 9 Noroeste 0 -- -- 95
2018-09-20 04:00:00 17.9 4 Noroeste 7 Noroeste 0 -- -- 96
2018-09-20 03:00:00 18.7 2 Noroeste 9 Noroeste 0 -- -- 94
2018-09-20 02:00:00 19.1 6 Noroeste 8 Noroeste 0 -- -- 96
2018-09-20 01:00:00 19.6 0 Calma 5 Norte 0 -- -- 94
2018-09-20 00:00:00 20.2 0 Calma 8 Oeste 0 -- -- 93